Gold Coast, Australia
Current Conditions -  °F | °C
As of 2:00 AM on Tuesday 23 Dec 2014 (Local Time) from YBCG Reporting Station
Overcast Overcast  
Wind Chill: 66°   Ceiling: 3700
Heat Index: 66°   Visibility: 6mi
Dew Point: 61°   Wind: 1mph
Humidity: 83%   Direction: 250°WSW
Pressure: 30"   Gusts: NA
Location:  28.02°S, 153.39°E
Report Text: YBCG 221600Z AUTO 25001KT 9999 // SCT033 BKN037 OVC057 19/16 Q1016
Loading
Personal Weather Stations






























Interactive Weather Map New forecast layout! Learn more

10-Day Weather Forecast

Advertisements
Track Severe Weather on mobile